createdAt,value
2023-01-07T00:01:23.980Z,11.06
2023-01-07T00:04:01.465Z,11.10
2023-01-07T00:06:37.885Z,11.06
2023-01-07T00:09:09.368Z,10.94
2023-01-07T00:11:40.926Z,11.04
2023-01-07T00:14:13.462Z,11.10
2023-01-07T00:16:43.568Z,10.92
2023-01-07T00:19:21.752Z,11.06
2023-01-07T00:21:51.441Z,10.95
2023-01-07T00:24:21.183Z,10.98
2023-01-07T00:26:50.802Z,10.76
2023-01-07T00:29:21.378Z,11.13
2023-01-07T00:31:51.082Z,10.99
2023-01-07T00:34:23.640Z,11.06
2023-01-07T00:37:13.356Z,11.10
2023-01-07T00:39:43.000Z,11.08
2023-01-07T00:42:27.612Z,11.09
2023-01-07T00:44:57.260Z,10.92
2023-01-07T00:47:26.918Z,10.92
2023-01-07T00:49:59.357Z,11.10
2023-01-07T00:52:28.974Z,10.88
2023-01-07T00:54:59.117Z,10.98
2023-01-07T00:57:29.029Z,11.01
2023-01-07T00:59:58.617Z,10.98
2023-01-07T01:02:28.239Z,11.02
2023-01-07T01:05:00.515Z,11.07
2023-01-07T01:07:30.246Z,11.15
2023-01-07T01:09:59.998Z,11.13
2023-01-07T01:12:30.368Z,11.25
2023-01-07T01:14:59.975Z,11.26
2023-01-07T01:17:29.634Z,11.18
2023-01-07T01:20:01.963Z,11.23
2023-01-07T01:22:31.628Z,11.31
2023-01-07T01:25:01.322Z,11.34
2023-01-07T01:27:32.401Z,11.12
2023-01-07T01:30:02.448Z,11.29
2023-01-07T01:32:33.394Z,11.28
2023-01-07T01:35:05.921Z,11.36
2023-01-07T01:37:35.658Z,11.17
2023-01-07T01:40:06.765Z,11.43
2023-01-07T01:42:38.466Z,11.41
2023-01-07T01:45:10.573Z,11.52
2023-01-07T01:47:52.486Z,11.36
2023-01-07T01:50:29.547Z,11.42
2023-01-07T01:53:05.082Z,11.40
2023-01-07T01:55:39.695Z,11.51
2023-01-07T01:58:12.484Z,11.47
2023-01-07T02:00:42.769Z,11.40
2023-01-07T02:03:19.180Z,11.30
2023-01-07T02:05:52.178Z,11.29
2023-01-07T02:08:23.388Z,11.12
2023-01-07T02:11:11.558Z,11.20
2023-01-07T02:13:54.194Z,11.07
2023-01-07T02:16:32.678Z,10.92
2023-01-07T02:19:19.005Z,11.13
2023-01-07T02:21:58.637Z,11.04
2023-01-07T02:24:52.587Z,11.10
2023-01-07T02:27:37.572Z,11.05
2023-01-07T02:30:49.060Z,11.07
2023-01-07T02:33:32.628Z,11.11
2023-01-07T02:36:13.603Z,11.04
2023-01-07T02:38:57.164Z,11.09
2023-01-07T02:41:39.278Z,11.04
2023-01-07T02:44:17.121Z,11.24
2023-01-07T02:46:53.242Z,11.30
2023-01-07T02:49:26.873Z,11.21
2023-01-07T02:51:56.470Z,11.32
2023-01-07T02:54:31.403Z,11.43
2023-01-07T02:57:24.223Z,11.40
2023-01-07T03:00:09.711Z,11.28
2023-01-07T03:02:59.463Z,11.41
2023-01-07T03:05:47.871Z,11.33
2023-01-07T03:08:37.267Z,11.33
2023-01-07T03:11:10.520Z,11.44
2023-01-07T03:13:46.229Z,11.41
2023-01-07T03:16:21.328Z,11.48
2023-01-07T03:18:58.211Z,11.54
2023-01-07T03:21:32.863Z,11.60
2023-01-07T03:24:04.565Z,11.64
2023-01-07T03:26:36.613Z,11.49
2023-01-07T03:29:09.838Z,11.40
2023-01-07T03:31:43.953Z,11.29
2023-01-07T03:34:18.152Z,11.47
2023-01-07T03:36:58.890Z,11.40
2023-01-07T03:39:32.138Z,11.48
2023-01-07T03:42:14.572Z,11.54
2023-01-07T03:44:44.538Z,11.49
2023-01-07T03:47:15.806Z,11.39
2023-01-07T03:49:45.443Z,11.32
2023-01-07T03:52:17.827Z,11.42
2023-01-07T03:54:47.470Z,11.45
2023-01-07T03:57:18.407Z,11.41
2023-01-07T03:59:48.075Z,11.43
2023-01-07T04:02:18.235Z,11.32
2023-01-07T04:04:48.011Z,11.23
2023-01-07T04:07:20.988Z,11.07
2023-01-07T04:09:50.937Z,11.38
2023-01-07T04:12:20.954Z,11.32
2023-01-07T04:14:50.624Z,11.34
2023-01-07T04:17:20.261Z,11.43
2023-01-07T04:19:50.410Z,11.42
2023-01-07T04:22:22.804Z,11.47
2023-01-07T04:24:52.521Z,11.38
2023-01-07T04:27:22.581Z,11.37
2023-01-07T04:29:52.235Z,11.27
2023-01-07T04:32:22.966Z,11.28
2023-01-07T04:34:52.993Z,11.28
2023-01-07T04:37:25.826Z,11.37
2023-01-07T04:39:55.517Z,11.22
2023-01-07T04:42:25.825Z,11.31
2023-01-07T04:44:55.498Z,11.37
2023-01-07T04:47:25.565Z,11.30
2023-01-07T04:49:55.843Z,11.27
2023-01-07T04:52:28.243Z,11.29
2023-01-07T04:54:58.086Z,11.20
2023-01-07T04:57:27.773Z,11.33
2023-01-07T04:59:57.650Z,11.32
2023-01-07T05:02:28.164Z,11.31
2023-01-07T05:04:58.308Z,11.34
2023-01-07T05:07:31.626Z,11.40
2023-01-07T05:10:02.180Z,11.31
2023-01-07T05:12:36.982Z,11.42
2023-01-07T05:15:09.667Z,11.40
2023-01-07T05:17:41.993Z,11.39
2023-01-07T05:20:13.659Z,11.33
2023-01-07T05:22:50.292Z,11.47
2023-01-07T05:25:20.978Z,11.34
2023-01-07T05:27:50.756Z,11.39
2023-01-07T05:30:21.071Z,11.51
2023-01-07T05:32:50.733Z,11.38
2023-01-07T05:35:20.716Z,11.33
2023-01-07T05:37:53.282Z,11.27
2023-01-07T05:40:23.538Z,11.39
2023-01-07T05:42:53.146Z,11.29
2023-01-07T05:45:23.088Z,11.37
2023-01-07T05:47:52.809Z,11.29
2023-01-07T05:50:22.477Z,11.35
2023-01-07T05:52:55.994Z,11.36
2023-01-07T05:55:25.645Z,11.29
2023-01-07T05:57:55.283Z,11.32
2023-01-07T06:00:25.122Z,11.31
2023-01-07T06:02:54.749Z,11.25
2023-01-07T06:05:25.095Z,11.28
2023-01-07T06:07:57.520Z,11.20
2023-01-07T06:10:27.162Z,10.99
2023-01-07T06:12:56.866Z,10.94
2023-01-07T06:15:26.556Z,10.79
2023-01-07T06:17:56.245Z,10.85
2023-01-07T06:20:26.125Z,10.85
2023-01-07T06:22:58.355Z,10.76
2023-01-07T06:25:28.923Z,10.72
2023-01-07T06:27:59.544Z,11.00
2023-01-07T06:30:29.599Z,10.90
2023-01-07T06:32:59.236Z,10.93
2023-01-07T06:35:29.059Z,10.91
2023-01-07T06:38:01.595Z,11.02
2023-01-07T06:40:31.228Z,11.00
2023-01-07T06:43:00.933Z,10.96
2023-01-07T06:45:30.635Z,11.08
2023-01-07T06:48:00.302Z,11.09
2023-01-07T06:50:30.056Z,10.93
2023-01-07T06:53:02.273Z,10.89
2023-01-07T06:55:31.914Z,10.77
2023-01-07T06:58:01.590Z,10.71
2023-01-07T07:00:31.642Z,10.58
2023-01-07T07:03:01.374Z,10.93
2023-01-07T07:05:31.352Z,10.88
2023-01-07T07:08:04.262Z,11.12
2023-01-07T07:10:33.996Z,11.02
2023-01-07T07:13:03.782Z,10.88
2023-01-07T07:15:33.478Z,10.83
2023-01-07T07:18:03.123Z,10.77
2023-01-07T07:20:32.841Z,10.60
2023-01-07T07:23:05.172Z,10.59
2023-01-07T07:25:34.832Z,10.53
2023-01-07T07:28:04.467Z,10.45
2023-01-07T07:30:45.470Z,10.45
2023-01-07T07:33:19.405Z,10.27
2023-01-07T07:35:49.808Z,10.21
2023-01-07T07:38:22.082Z,10.36
2023-01-07T07:40:51.875Z,10.33
2023-01-07T07:43:21.588Z,10.36
2023-01-07T07:45:51.310Z,10.32
2023-01-07T07:48:20.975Z,10.24
2023-01-07T07:50:53.296Z,10.21
2023-01-07T07:53:25.754Z,10.30
2023-01-07T07:55:55.825Z,10.29
2023-01-07T07:58:25.664Z,10.36
2023-01-07T08:00:55.410Z,10.23
2023-01-07T08:03:25.155Z,10.34
2023-01-07T08:05:54.827Z,10.43
2023-01-07T08:08:27.088Z,10.48
2023-01-07T08:10:58.116Z,10.31
2023-01-07T08:13:30.039Z,10.40
2023-01-07T08:16:00.139Z,10.51
2023-01-07T08:18:33.248Z,10.43
2023-01-07T08:21:06.174Z,10.39
2023-01-07T08:23:38.431Z,10.44
2023-01-07T08:26:08.524Z,10.42
2023-01-07T08:28:40.612Z,10.53
2023-01-07T08:31:14.320Z,10.54
2023-01-07T08:33:46.090Z,10.62
2023-01-07T08:36:22.551Z,10.59
2023-01-07T08:38:56.852Z,10.74
2023-01-07T08:41:27.599Z,10.78
2023-01-07T08:43:58.389Z,10.80
2023-01-07T08:46:30.127Z,10.94
2023-01-07T08:49:06.948Z,10.98
2023-01-07T08:51:37.719Z,11.06
2023-01-07T08:54:10.039Z,10.62
2023-01-07T08:56:39.716Z,10.93
2023-01-07T08:59:11.519Z,11.01
2023-01-07T09:01:42.393Z,11.08
2023-01-07T09:04:13.260Z,11.14
2023-01-07T09:06:42.978Z,11.12
2023-01-07T09:09:16.694Z,11.19
2023-01-07T09:11:46.584Z,11.13
2023-01-07T09:14:16.512Z,11.27
2023-01-07T09:16:49.360Z,11.26
2023-01-07T09:19:20.287Z,11.32
2023-01-07T09:21:51.381Z,11.27
2023-01-07T09:24:23.689Z,11.32
2023-01-07T09:26:53.433Z,11.33
2023-01-07T09:29:23.172Z,11.46
2023-01-07T09:31:52.882Z,11.52
2023-01-07T09:34:26.262Z,11.54
2023-01-07T09:36:59.239Z,11.63
2023-01-07T09:39:32.574Z,11.65
2023-01-07T09:42:11.823Z,11.76
2023-01-07T09:44:56.455Z,11.57
2023-01-07T09:47:29.230Z,11.53
2023-01-07T09:50:03.241Z,11.81
2023-01-07T09:52:41.990Z,11.77
2023-01-07T09:55:20.566Z,11.61
2023-01-07T09:57:51.719Z,11.55
2023-01-07T10:00:26.327Z,11.52
2023-01-07T10:03:13.355Z,11.53
2023-01-07T10:06:00.673Z,11.72
2023-01-07T10:08:39.810Z,11.63
2023-01-07T10:11:23.262Z,11.81
2023-01-07T10:14:08.613Z,11.56
2023-01-07T10:16:46.278Z,11.62
2023-01-07T10:19:26.283Z,11.89
2023-01-07T10:22:04.130Z,11.90
2023-01-07T10:24:43.954Z,12.00
2023-01-07T10:27:18.060Z,11.98
2023-01-07T10:29:55.226Z,11.92
2023-01-07T10:32:33.434Z,11.85
2023-01-07T10:35:06.597Z,11.89
2023-01-07T10:37:40.096Z,12.05
2023-01-07T10:40:24.847Z,12.06
2023-01-07T10:43:03.972Z,12.24
2023-01-07T10:45:52.554Z,12.18
2023-01-07T10:48:48.704Z,12.22
2023-01-07T10:51:41.155Z,12.17
2023-01-07T10:54:26.387Z,12.34
2023-01-07T10:57:00.761Z,12.23
2023-01-07T10:59:39.351Z,12.32
2023-01-07T11:02:19.997Z,12.24
2023-01-07T11:04:55.951Z,12.25
2023-01-07T11:07:34.779Z,12.16
2023-01-07T11:10:08.426Z,12.12
2023-01-07T11:12:44.231Z,12.21
2023-01-07T11:15:23.476Z,12.16
2023-01-07T11:17:59.407Z,12.08
2023-01-07T11:20:50.035Z,12.10
2023-01-07T11:23:32.653Z,12.25
2023-01-07T11:26:26.208Z,12.48
2023-01-07T11:28:58.002Z,12.40
2023-01-07T11:31:49.893Z,12.57
2023-01-07T11:34:25.201Z,12.59
2023-01-07T11:36:55.455Z,12.47
2023-01-07T11:39:30.537Z,12.57
2023-01-07T11:42:21.951Z,12.61
2023-01-07T11:44:51.635Z,12.62
2023-01-07T11:47:23.969Z,12.70
2023-01-07T11:49:54.835Z,12.64
2023-01-07T11:52:24.692Z,12.85
2023-01-07T11:54:54.716Z,12.86
2023-01-07T11:57:27.197Z,13.01
2023-01-07T12:00:17.508Z,12.93
2023-01-07T12:03:02.905Z,13.00
2023-01-07T12:05:33.985Z,12.91
2023-01-07T12:08:05.760Z,12.61
2023-01-07T12:10:38.887Z,12.55
2023-01-07T12:13:25.507Z,12.12
2023-01-07T12:15:57.586Z,12.17
2023-01-07T12:18:41.636Z,12.28
2023-01-07T12:21:27.938Z,12.40
2023-01-07T12:24:10.773Z,12.33
2023-01-07T12:26:48.497Z,12.40
2023-01-07T12:29:32.109Z,12.49
2023-01-07T12:32:16.011Z,12.53
2023-01-07T12:34:58.504Z,12.49
2023-01-07T12:37:49.579Z,12.48
2023-01-07T12:40:33.138Z,12.55
2023-01-07T12:43:12.802Z,12.45
2023-01-07T12:45:50.516Z,12.50
2023-01-07T12:48:28.048Z,12.43
2023-01-07T12:51:05.182Z,12.25
2023-01-07T12:53:41.619Z,12.48
2023-01-07T12:56:23.056Z,12.22
2023-01-07T12:59:01.677Z,12.29
2023-01-07T13:01:36.970Z,12.31
2023-01-07T13:04:16.262Z,12.23
2023-01-07T13:06:56.249Z,12.39
2023-01-07T13:09:33.467Z,12.50
2023-01-07T13:12:41.003Z,12.61
2023-01-07T13:15:15.879Z,12.66
2023-01-07T13:17:45.651Z,12.54
2023-01-07T13:20:16.443Z,12.58
2023-01-07T13:22:53.512Z,12.68
2023-01-07T13:25:37.584Z,12.56
2023-01-07T13:28:39.090Z,12.40
2023-01-07T13:31:25.010Z,12.50
2023-01-07T13:34:05.274Z,12.51
2023-01-07T13:36:46.337Z,12.56
2023-01-07T13:39:41.354Z,12.55
2023-01-07T13:42:27.297Z,12.53
2023-01-07T13:45:05.588Z,12.49
2023-01-07T13:47:45.976Z,12.38
2023-01-07T13:50:26.339Z,12.58
2023-01-07T13:53:05.511Z,12.52
2023-01-07T13:55:46.362Z,12.60
2023-01-07T13:58:37.887Z,12.65
2023-01-07T14:01:11.736Z,12.52
2023-01-07T14:03:53.316Z,12.49
2023-01-07T14:06:48.428Z,12.54
2023-01-07T14:09:40.566Z,12.49
2023-01-07T14:12:55.814Z,12.38
2023-01-07T14:16:00.660Z,12.41
2023-01-07T14:19:03.985Z,12.20
2023-01-07T14:21:45.284Z,12.38
2023-01-07T14:24:37.291Z,12.24
2023-01-07T14:27:26.622Z,12.48
2023-01-07T14:30:16.263Z,12.55
2023-01-07T14:32:47.601Z,12.21
2023-01-07T14:35:29.290Z,12.28
2023-01-07T14:38:01.039Z,12.32
2023-01-07T14:41:07.753Z,12.37
2023-01-07T14:44:07.497Z,12.27
2023-01-07T14:46:53.356Z,12.14
2023-01-07T14:49:44.197Z,12.11
2023-01-07T14:52:27.065Z,11.95
2023-01-07T14:55:21.035Z,11.88
2023-01-07T14:58:08.139Z,11.64
2023-01-07T15:00:57.426Z,11.82
2023-01-07T15:03:55.546Z,11.50
2023-01-07T15:06:31.485Z,11.39
2023-01-07T15:09:20.597Z,11.38
2023-01-07T15:12:04.475Z,11.50
2023-01-07T15:14:55.790Z,11.57
2023-01-07T15:17:28.074Z,11.62
2023-01-07T15:20:02.241Z,11.60
2023-01-07T15:22:53.337Z,11.60
2023-01-07T15:25:36.242Z,11.65
2023-01-07T15:28:22.727Z,11.44
2023-01-07T15:31:03.732Z,11.39
2023-01-07T15:33:47.221Z,11.41
2023-01-07T15:36:20.770Z,11.31
2023-01-07T15:38:53.859Z,11.39
2023-01-07T15:41:33.480Z,11.38
2023-01-07T15:44:09.684Z,11.47
2023-01-07T15:46:43.165Z,11.20
2023-01-07T15:49:21.145Z,11.16
2023-01-07T15:51:56.940Z,11.25
2023-01-07T15:54:32.712Z,11.22
2023-01-07T15:57:09.008Z,11.05
2023-01-07T15:59:47.259Z,11.05
2023-01-07T16:02:24.842Z,10.85
2023-01-07T16:05:01.371Z,10.69
2023-01-07T16:07:36.976Z,10.40
2023-01-07T16:10:08.222Z,10.43
2023-01-07T16:12:40.840Z,10.46
2023-01-07T16:15:32.619Z,10.37
2023-01-07T16:18:04.338Z,10.47
2023-01-07T16:20:37.543Z,10.54
2023-01-07T16:23:22.822Z,10.72
2023-01-07T16:26:00.157Z,10.56
2023-01-07T16:28:36.055Z,10.68
2023-01-07T16:31:08.192Z,10.58
2023-01-07T16:33:40.348Z,10.75
2023-01-07T16:36:16.837Z,10.72
2023-01-07T16:38:56.291Z,11.01
2023-01-07T16:41:30.609Z,10.92
2023-01-07T16:44:02.093Z,11.01
2023-01-07T16:46:36.158Z,10.83
2023-01-07T16:49:28.700Z,10.44
2023-01-07T16:52:08.049Z,10.72
2023-01-07T16:54:42.895Z,10.69
2023-01-07T16:57:33.051Z,10.75
2023-01-07T17:00:06.777Z,10.77
2023-01-07T17:02:41.832Z,10.75
2023-01-07T17:05:18.549Z,11.11
2023-01-07T17:07:50.796Z,10.91
2023-01-07T17:10:29.193Z,11.14
2023-01-07T17:13:01.867Z,11.00
2023-01-07T17:15:39.491Z,10.89
2023-01-07T17:18:31.495Z,11.06
2023-01-07T17:21:02.963Z,10.87
2023-01-07T17:23:45.704Z,10.95
2023-01-07T17:26:27.108Z,11.10
2023-01-07T17:28:58.979Z,10.69
2023-01-07T17:31:32.371Z,10.96
2023-01-07T17:34:05.308Z,10.99
2023-01-07T17:36:35.341Z,10.99
2023-01-07T17:39:04.999Z,10.98
2023-01-07T17:41:53.623Z,11.10
2023-01-07T17:44:24.510Z,11.02
2023-01-07T17:46:55.551Z,10.86
2023-01-07T17:49:26.934Z,11.02
2023-01-07T17:51:56.634Z,10.83
2023-01-07T17:54:28.168Z,10.63
2023-01-07T17:57:03.943Z,10.51
2023-01-07T17:59:33.582Z,11.00
2023-01-07T18:02:05.632Z,10.85
2023-01-07T18:04:37.439Z,11.07
2023-01-07T18:07:08.155Z,10.87
2023-01-07T18:09:39.328Z,11.07
2023-01-07T18:12:36.112Z,10.85
2023-01-07T18:15:07.182Z,10.91
2023-01-07T18:17:37.805Z,11.04
2023-01-07T18:20:09.449Z,11.08
2023-01-07T18:22:39.073Z,11.07
2023-01-07T18:25:18.963Z,11.02
2023-01-07T18:27:53.549Z,10.87
2023-01-07T18:30:24.667Z,10.94
2023-01-07T18:32:54.276Z,10.62
2023-01-07T18:35:27.315Z,10.75
2023-01-07T18:37:57.037Z,10.80
2023-01-07T18:40:28.785Z,10.79
2023-01-07T18:43:01.058Z,10.66
2023-01-07T18:45:32.860Z,10.70
2023-01-07T18:48:04.549Z,10.76
2023-01-07T18:50:34.291Z,10.67
2023-01-07T18:53:05.602Z,10.74
2023-01-07T18:55:35.293Z,10.76
2023-01-07T18:58:08.019Z,10.80
2023-01-07T19:00:39.045Z,10.45
2023-01-07T19:03:08.745Z,10.47
2023-01-07T19:05:42.708Z,10.41
2023-01-07T19:08:12.399Z,10.55
2023-01-07T19:10:49.702Z,10.54
2023-01-07T19:13:22.037Z,9.50
2023-01-07T19:15:51.761Z,10.25
2023-01-07T19:18:21.503Z,9.57
2023-01-07T19:20:53.320Z,10.05
2023-01-07T19:23:23.180Z,9.98
2023-01-07T19:26:00.287Z,9.71
2023-01-07T19:28:32.901Z,10.05
2023-01-07T19:31:08.341Z,10.03
2023-01-07T19:33:42.328Z,9.96
2023-01-07T19:36:15.890Z,10.01
2023-01-07T19:38:50.353Z,10.07
2023-01-07T19:41:24.538Z,10.04
2023-01-07T19:44:00.868Z,10.15
2023-01-07T19:46:34.781Z,10.29
2023-01-07T19:49:04.713Z,10.18
2023-01-07T19:51:34.897Z,10.06
2023-01-07T19:54:05.735Z,10.24
2023-01-07T19:56:43.725Z,10.18
2023-01-07T19:59:17.601Z,10.15
2023-01-07T20:01:47.373Z,10.15
2023-01-07T20:04:20.354Z,9.64
2023-01-07T20:06:51.129Z,9.69
2023-01-07T20:09:24.517Z,9.75
2023-01-07T20:11:54.413Z,9.98
2023-01-07T20:14:26.731Z,9.82
2023-01-07T20:16:56.567Z,10.01
2023-01-07T20:19:27.410Z,9.96
2023-01-07T20:22:00.403Z,9.82
2023-01-07T20:24:30.188Z,9.98
2023-01-07T20:27:00.177Z,10.09
2023-01-07T20:29:36.035Z,10.15
2023-01-07T20:32:13.140Z,10.31
2023-01-07T20:34:43.375Z,10.30
2023-01-07T20:37:15.118Z,9.92
2023-01-07T20:39:44.836Z,10.11
2023-01-07T20:42:14.556Z,9.86
2023-01-07T20:44:51.715Z,10.21
2023-01-07T20:47:21.530Z,10.01
2023-01-07T20:49:51.220Z,10.19
2023-01-07T20:52:20.935Z,10.09
2023-01-07T20:54:54.437Z,9.96
2023-01-07T20:57:24.366Z,10.04
2023-01-07T21:00:00.096Z,9.82
2023-01-07T21:02:30.082Z,9.61
2023-01-07T21:05:02.031Z,9.05
2023-01-07T21:07:35.430Z,10.05
2023-01-07T21:10:09.538Z,10.10
2023-01-07T21:12:43.206Z,9.24
2023-01-07T21:15:16.937Z,9.89
2023-01-07T21:17:48.780Z,9.78
2023-01-07T21:20:18.707Z,9.75
2023-01-07T21:22:56.206Z,9.78
2023-01-07T21:25:29.474Z,9.55
2023-01-07T21:27:59.288Z,9.59
2023-01-07T21:30:33.717Z,9.77
2023-01-07T21:33:03.407Z,9.80
2023-01-07T21:35:35.076Z,9.85
2023-01-07T21:38:08.426Z,9.73
2023-01-07T21:40:42.252Z,9.93
2023-01-07T21:43:12.185Z,10.07
2023-01-07T21:45:46.579Z,10.20
2023-01-07T21:48:17.415Z,10.09
2023-01-07T21:50:47.252Z,10.06
2023-01-07T21:53:20.885Z,10.19
2023-01-07T21:55:51.730Z,10.20
2023-01-07T21:58:22.599Z,10.06
2023-01-07T22:00:58.166Z,10.12
2023-01-07T22:03:30.166Z,9.99
2023-01-07T22:06:01.339Z,10.05
2023-01-07T22:08:31.831Z,9.96
2023-01-07T22:11:01.566Z,9.96
2023-01-07T22:13:31.299Z,9.87
2023-01-07T22:16:04.323Z,9.96
2023-01-07T22:18:34.510Z,10.02
2023-01-07T22:21:05.099Z,10.16
2023-01-07T22:23:37.205Z,10.25
2023-01-07T22:26:08.310Z,10.12
2023-01-07T22:28:40.597Z,10.29
2023-01-07T22:31:18.812Z,10.05
2023-01-07T22:33:50.835Z,10.32
2023-01-07T22:36:25.595Z,10.26
2023-01-07T22:38:59.145Z,10.34
2023-01-07T22:41:31.574Z,10.24
2023-01-07T22:44:02.241Z,10.26
2023-01-07T22:46:36.800Z,10.18
2023-01-07T22:49:11.504Z,10.03
2023-01-07T22:51:46.606Z,10.15
2023-01-07T22:54:19.279Z,9.80
2023-01-07T22:56:50.058Z,10.18
2023-01-07T22:59:21.009Z,10.13
2023-01-07T23:01:53.362Z,10.23
2023-01-07T23:04:26.496Z,9.93
2023-01-07T23:06:57.460Z,10.30
2023-01-07T23:09:28.456Z,10.07
2023-01-07T23:12:00.907Z,10.16
2023-01-07T23:14:32.633Z,9.37
2023-01-07T23:17:06.204Z,9.44
2023-01-07T23:19:39.479Z,9.90
2023-01-07T23:22:12.427Z,10.11
2023-01-07T23:24:43.147Z,9.25
2023-01-07T23:27:15.468Z,9.67
2023-01-07T23:29:47.222Z,9.90
2023-01-07T23:32:20.976Z,9.04
2023-01-07T23:34:54.413Z,9.49
2023-01-07T23:37:25.286Z,9.67
2023-01-07T23:39:58.388Z,9.87
2023-01-07T23:42:28.218Z,9.66
2023-01-07T23:44:59.208Z,9.22
2023-01-07T23:47:31.602Z,9.22
2023-01-07T23:50:02.434Z,9.96
2023-01-07T23:52:33.236Z,9.93
2023-01-07T23:55:04.002Z,9.89
2023-01-07T23:57:37.591Z,9.85
